sensor_id;sensor_type;location;lat;lon;timestamp;P1;durP1;ratioP1;P2;durP2;ratioP2
7699;SDS011;3892;47.794;19.126;2023-07-24T00:02:14;5.73;;;4.30;;
7699;SDS011;3892;47.794;19.126;2023-07-24T00:04:42;5.87;;;4.30;;
7699;SDS011;3892;47.794;19.126;2023-07-24T00:07:10;4.60;;;4.20;;
7699;SDS011;3892;47.794;19.126;2023-07-24T00:09:38;4.70;;;4.30;;
7699;SDS011;3892;47.794;19.126;2023-07-24T00:12:08;4.83;;;4.07;;
7699;SDS011;3892;47.794;19.126;2023-07-24T00:14:36;5.40;;;4.53;;
7699;SDS011;3892;47.794;19.126;2023-07-24T00:17:04;6.50;;;4.30;;
7699;SDS011;3892;47.794;19.126;2023-07-24T00:19:32;6.33;;;4.10;;
7699;SDS011;3892;47.794;19.126;2023-07-24T00:22:00;4.80;;;4.40;;
7699;SDS011;3892;47.794;19.126;2023-07-24T00:24:29;4.50;;;4.10;;
7699;SDS011;3892;47.794;19.126;2023-07-24T00:26:58;6.63;;;4.53;;
7699;SDS011;3892;47.794;19.126;2023-07-24T00:29:28;5.13;;;4.40;;
7699;SDS011;3892;47.794;19.126;2023-07-24T00:31:56;6.13;;;4.23;;
7699;SDS011;3892;47.794;19.126;2023-07-24T00:34:24;5.60;;;4.50;;
7699;SDS011;3892;47.794;19.126;2023-07-24T00:36:54;4.37;;;3.97;;
7699;SDS011;3892;47.794;19.126;2023-07-24T00:39:22;4.73;;;4.20;;
7699;SDS011;3892;47.794;19.126;2023-07-24T00:41:50;5.07;;;4.33;;
7699;SDS011;3892;47.794;19.126;2023-07-24T00:44:18;7.10;;;4.90;;
7699;SDS011;3892;47.794;19.126;2023-07-24T00:46:48;5.53;;;4.73;;
7699;SDS011;3892;47.794;19.126;2023-07-24T00:49:16;4.63;;;4.20;;
7699;SDS011;3892;47.794;19.126;2023-07-24T00:51:45;4.87;;;4.47;;
7699;SDS011;3892;47.794;19.126;2023-07-24T00:54:14;4.67;;;4.27;;
7699;SDS011;3892;47.794;19.126;2023-07-24T00:56:43;4.87;;;4.43;;
7699;SDS011;3892;47.794;19.126;2023-07-24T00:59:12;6.03;;;4.37;;
7699;SDS011;3892;47.794;19.126;2023-07-24T01:01:42;4.63;;;4.07;;
7699;SDS011;3892;47.794;19.126;2023-07-24T01:04:12;4.77;;;4.20;;
7699;SDS011;3892;47.794;19.126;2023-07-24T01:06:41;5.00;;;4.60;;
7699;SDS011;3892;47.794;19.126;2023-07-24T01:09:09;4.73;;;4.33;;
7699;SDS011;3892;47.794;19.126;2023-07-24T01:11:39;4.57;;;4.17;;
7699;SDS011;3892;47.794;19.126;2023-07-24T01:14:12;5.90;;;4.07;;
7699;SDS011;3892;47.794;19.126;2023-07-24T01:16:45;5.17;;;4.73;;
7699;SDS011;3892;47.794;19.126;2023-07-24T01:19:20;4.50;;;4.00;;
7699;SDS011;3892;47.794;19.126;2023-07-24T01:21:58;5.80;;;4.70;;
7699;SDS011;3892;47.794;19.126;2023-07-24T01:24:36;6.10;;;4.20;;
7699;SDS011;3892;47.794;19.126;2023-07-24T01:27:18;4.90;;;4.47;;
7699;SDS011;3892;47.794;19.126;2023-07-24T01:29:47;6.30;;;4.57;;
7699;SDS011;3892;47.794;19.126;2023-07-24T01:32:16;4.60;;;4.20;;
7699;SDS011;3892;47.794;19.126;2023-07-24T01:34:44;5.77;;;4.30;;
7699;SDS011;3892;47.794;19.126;2023-07-24T01:37:12;4.43;;;4.03;;
7699;SDS011;3892;47.794;19.126;2023-07-24T01:39:41;4.93;;;4.50;;
7699;SDS011;3892;47.794;19.126;2023-07-24T01:42:12;7.30;;;4.43;;
7699;SDS011;3892;47.794;19.126;2023-07-24T01:44:41;4.50;;;4.10;;
7699;SDS011;3892;47.794;19.126;2023-07-24T01:47:09;8.97;;;4.60;;
7699;SDS011;3892;47.794;19.126;2023-07-24T01:49:37;4.57;;;4.17;;
7699;SDS011;3892;47.794;19.126;2023-07-24T01:52:05;5.63;;;4.17;;
7699;SDS011;3892;47.794;19.126;2023-07-24T01:54:34;6.43;;;4.43;;
7699;SDS011;3892;47.794;19.126;2023-07-24T01:57:02;4.43;;;4.00;;
7699;SDS011;3892;47.794;19.126;2023-07-24T01:59:32;4.73;;;4.00;;
7699;SDS011;3892;47.794;19.126;2023-07-24T02:02:00;6.80;;;4.17;;
7699;SDS011;3892;47.794;19.126;2023-07-24T02:04:28;4.70;;;4.20;;
7699;SDS011;3892;47.794;19.126;2023-07-24T02:06:56;4.37;;;3.97;;
7699;SDS011;3892;47.794;19.126;2023-07-24T02:09:24;4.23;;;3.87;;
7699;SDS011;3892;47.794;19.126;2023-07-24T02:11:52;5.50;;;4.30;;
7699;SDS011;3892;47.794;19.126;2023-07-24T02:14:20;5.10;;;4.60;;
7699;SDS011;3892;47.794;19.126;2023-07-24T02:16:50;4.53;;;4.13;;
7699;SDS011;3892;47.794;19.126;2023-07-24T02:19:18;5.10;;;4.37;;
7699;SDS011;3892;47.794;19.126;2023-07-24T02:21:46;6.23;;;4.43;;
7699;SDS011;3892;47.794;19.126;2023-07-24T02:24:14;4.93;;;4.53;;
7699;SDS011;3892;47.794;19.126;2023-07-24T02:26:42;4.50;;;4.10;;
7699;SDS011;3892;47.794;19.126;2023-07-24T02:29:10;5.37;;;4.87;;
7699;SDS011;3892;47.794;19.126;2023-07-24T02:31:38;4.53;;;4.13;;
7699;SDS011;3892;47.794;19.126;2023-07-24T02:34:07;5.20;;;4.20;;
7699;SDS011;3892;47.794;19.126;2023-07-24T02:36:35;6.67;;;4.10;;
7699;SDS011;3892;47.794;19.126;2023-07-24T02:39:04;4.67;;;4.00;;
7699;SDS011;3892;47.794;19.126;2023-07-24T02:41:32;5.20;;;4.03;;
7699;SDS011;3892;47.794;19.126;2023-07-24T02:44:01;6.73;;;4.83;;
7699;SDS011;3892;47.794;19.126;2023-07-24T02:46:30;5.77;;;4.13;;
7699;SDS011;3892;47.794;19.126;2023-07-24T02:48:58;5.30;;;4.50;;
7699;SDS011;3892;47.794;19.126;2023-07-24T02:51:27;4.70;;;4.23;;
7699;SDS011;3892;47.794;19.126;2023-07-24T02:53:55;5.23;;;4.40;;
7699;SDS011;3892;47.794;19.126;2023-07-24T02:56:23;4.47;;;4.10;;
7699;SDS011;3892;47.794;19.126;2023-07-24T02:58:51;5.10;;;4.53;;
7699;SDS011;3892;47.794;19.126;2023-07-24T03:01:19;5.13;;;4.63;;
7699;SDS011;3892;47.794;19.126;2023-07-24T03:03:47;7.00;;;4.33;;
7699;SDS011;3892;47.794;19.126;2023-07-24T03:06:16;6.30;;;4.50;;
7699;SDS011;3892;47.794;19.126;2023-07-24T03:08:47;5.73;;;4.93;;
7699;SDS011;3892;47.794;19.126;2023-07-24T03:11:15;5.03;;;4.53;;
7699;SDS011;3892;47.794;19.126;2023-07-24T03:13:43;7.20;;;4.53;;
7699;SDS011;3892;47.794;19.126;2023-07-24T03:16:11;5.30;;;4.80;;
7699;SDS011;3892;47.794;19.126;2023-07-24T03:18:39;5.93;;;4.20;;
7699;SDS011;3892;47.794;19.126;2023-07-24T03:21:07;5.43;;;4.33;;
7699;SDS011;3892;47.794;19.126;2023-07-24T03:23:36;10.17;;;5.23;;
7699;SDS011;3892;47.794;19.126;2023-07-24T03:26:06;5.73;;;4.37;;
7699;SDS011;3892;47.794;19.126;2023-07-24T03:28:34;5.30;;;3.93;;
7699;SDS011;3892;47.794;19.126;2023-07-24T03:31:02;8.13;;;4.57;;
7699;SDS011;3892;47.794;19.126;2023-07-24T03:33:30;4.50;;;4.10;;
7699;SDS011;3892;47.794;19.126;2023-07-24T03:35:58;4.87;;;4.30;;
7699;SDS011;3892;47.794;19.126;2023-07-24T03:38:26;5.00;;;4.40;;
7699;SDS011;3892;47.794;19.126;2023-07-24T03:40:54;8.77;;;5.00;;
7699;SDS011;3892;47.794;19.126;2023-07-24T03:43:24;5.93;;;4.90;;
7699;SDS011;3892;47.794;19.126;2023-07-24T03:45:52;7.33;;;4.83;;
7699;SDS011;3892;47.794;19.126;2023-07-24T03:48:20;5.80;;;4.63;;
7699;SDS011;3892;47.794;19.126;2023-07-24T03:50:49;4.90;;;4.50;;
7699;SDS011;3892;47.794;19.126;2023-07-24T03:53:17;8.53;;;4.40;;
7699;SDS011;3892;47.794;19.126;2023-07-24T03:55:45;5.23;;;4.70;;
7699;SDS011;3892;47.794;19.126;2023-07-24T03:58:13;5.07;;;4.57;;
7699;SDS011;3892;47.794;19.126;2023-07-24T04:00:42;6.00;;;4.80;;
7699;SDS011;3892;47.794;19.126;2023-07-24T04:03:10;5.57;;;5.07;;
7699;SDS011;3892;47.794;19.126;2023-07-24T04:05:39;8.03;;;5.40;;
7699;SDS011;3892;47.794;19.126;2023-07-24T04:08:07;6.73;;;4.90;;
7699;SDS011;3892;47.794;19.126;2023-07-24T04:10:35;6.90;;;5.13;;
7699;SDS011;3892;47.794;19.126;2023-07-24T04:13:03;7.30;;;5.07;;
7699;SDS011;3892;47.794;19.126;2023-07-24T04:15:31;6.33;;;4.80;;
7699;SDS011;3892;47.794;19.126;2023-07-24T04:18:00;5.37;;;4.83;;
7699;SDS011;3892;47.794;19.126;2023-07-24T04:20:28;6.53;;;5.23;;
7699;SDS011;3892;47.794;19.126;2023-07-24T04:22:56;6.80;;;5.13;;
7699;SDS011;3892;47.794;19.126;2023-07-24T04:25:24;6.33;;;5.40;;
7699;SDS011;3892;47.794;19.126;2023-07-24T04:27:53;5.60;;;5.10;;
7699;SDS011;3892;47.794;19.126;2023-07-24T04:30:21;6.50;;;5.37;;
7699;SDS011;3892;47.794;19.126;2023-07-24T04:32:49;7.30;;;5.63;;
7699;SDS011;3892;47.794;19.126;2023-07-24T04:35:18;6.03;;;5.37;;
7699;SDS011;3892;47.794;19.126;2023-07-24T04:37:46;6.13;;;5.57;;
7699;SDS011;3892;47.794;19.126;2023-07-24T04:40:14;7.60;;;5.37;;
7699;SDS011;3892;47.794;19.126;2023-07-24T04:42:42;6.00;;;5.40;;
7699;SDS011;3892;47.794;19.126;2023-07-24T04:45:11;7.83;;;5.77;;
7699;SDS011;3892;47.794;19.126;2023-07-24T04:47:39;6.77;;;5.80;;
7699;SDS011;3892;47.794;19.126;2023-07-24T04:50:07;6.50;;;5.90;;
7699;SDS011;3892;47.794;19.126;2023-07-24T04:52:37;7.97;;;5.67;;
7699;SDS011;3892;47.794;19.126;2023-07-24T04:55:05;7.77;;;5.70;;
7699;SDS011;3892;47.794;19.126;2023-07-24T04:57:34;9.03;;;6.90;;
7699;SDS011;3892;47.794;19.126;2023-07-24T05:00:02;8.90;;;5.90;;
7699;SDS011;3892;47.794;19.126;2023-07-24T05:02:31;5.70;;;5.20;;
7699;SDS011;3892;47.794;19.126;2023-07-24T05:04:59;18.57;;;16.67;;
7699;SDS011;3892;47.794;19.126;2023-07-24T05:07:27;7.37;;;6.70;;
7699;SDS011;3892;47.794;19.126;2023-07-24T05:09:56;9.30;;;6.80;;
7699;SDS011;3892;47.794;19.126;2023-07-24T05:12:24;6.90;;;6.30;;
7699;SDS011;3892;47.794;19.126;2023-07-24T05:14:53;8.57;;;6.40;;
7699;SDS011;3892;47.794;19.126;2023-07-24T05:17:21;7.07;;;6.37;;
7699;SDS011;3892;47.794;19.126;2023-07-24T05:19:49;7.50;;;6.80;;
7699;SDS011;3892;47.794;19.126;2023-07-24T05:22:17;7.50;;;6.80;;
7699;SDS011;3892;47.794;19.126;2023-07-24T05:24:45;8.30;;;6.80;;
7699;SDS011;3892;47.794;19.126;2023-07-24T05:27:14;7.67;;;6.50;;
7699;SDS011;3892;47.794;19.126;2023-07-24T05:29:43;7.17;;;6.47;;
7699;SDS011;3892;47.794;19.126;2023-07-24T05:32:11;6.90;;;6.17;;
7699;SDS011;3892;47.794;19.126;2023-07-24T05:34:39;7.20;;;6.50;;
7699;SDS011;3892;47.794;19.126;2023-07-24T05:37:08;7.33;;;6.33;;
7699;SDS011;3892;47.794;19.126;2023-07-24T05:39:36;9.50;;;6.50;;
7699;SDS011;3892;47.794;19.126;2023-07-24T05:42:04;8.80;;;6.50;;
7699;SDS011;3892;47.794;19.126;2023-07-24T05:44:33;7.10;;;6.40;;
7699;SDS011;3892;47.794;19.126;2023-07-24T05:47:03;7.07;;;6.47;;
7699;SDS011;3892;47.794;19.126;2023-07-24T05:49:31;8.87;;;7.97;;
7699;SDS011;3892;47.794;19.126;2023-07-24T05:51:59;9.63;;;6.93;;
7699;SDS011;3892;47.794;19.126;2023-07-24T05:54:27;7.37;;;6.53;;
7699;SDS011;3892;47.794;19.126;2023-07-24T05:56:56;8.70;;;6.60;;
7699;SDS011;3892;47.794;19.126;2023-07-24T05:59:24;7.60;;;6.90;;
7699;SDS011;3892;47.794;19.126;2023-07-24T06:01:53;8.10;;;6.87;;
7699;SDS011;3892;47.794;19.126;2023-07-24T06:04:21;7.70;;;7.00;;
7699;SDS011;3892;47.794;19.126;2023-07-24T06:06:49;7.07;;;6.37;;
7699;SDS011;3892;47.794;19.126;2023-07-24T06:09:21;8.53;;;6.63;;
7699;SDS011;3892;47.794;19.126;2023-07-24T06:11:49;7.67;;;6.97;;
7699;SDS011;3892;47.794;19.126;2023-07-24T06:14:17;7.30;;;6.60;;
7699;SDS011;3892;47.794;19.126;2023-07-24T06:16:45;8.10;;;7.17;;
7699;SDS011;3892;47.794;19.126;2023-07-24T06:19:14;7.67;;;6.67;;
7699;SDS011;3892;47.794;19.126;2023-07-24T06:21:43;7.43;;;6.73;;
7699;SDS011;3892;47.794;19.126;2023-07-24T06:24:11;7.00;;;6.30;;
7699;SDS011;3892;47.794;19.126;2023-07-24T06:26:39;7.20;;;6.50;;
7699;SDS011;3892;47.794;19.126;2023-07-24T06:29:08;7.73;;;7.10;;
7699;SDS011;3892;47.794;19.126;2023-07-24T06:31:38;7.87;;;7.13;;
7699;SDS011;3892;47.794;19.126;2023-07-24T06:34:08;7.77;;;7.00;;
7699;SDS011;3892;47.794;19.126;2023-07-24T06:36:38;7.77;;;6.97;;
7699;SDS011;3892;47.794;19.126;2023-07-24T06:39:06;7.57;;;6.87;;
7699;SDS011;3892;47.794;19.126;2023-07-24T06:41:34;7.57;;;6.87;;
7699;SDS011;3892;47.794;19.126;2023-07-24T06:44:02;8.67;;;7.10;;
7699;SDS011;3892;47.794;19.126;2023-07-24T06:46:30;7.80;;;7.10;;
7699;SDS011;3892;47.794;19.126;2023-07-24T06:48:58;9.67;;;6.93;;
7699;SDS011;3892;47.794;19.126;2023-07-24T06:51:26;7.70;;;6.37;;
7699;SDS011;3892;47.794;19.126;2023-07-24T06:53:56;7.97;;;7.23;;
7699;SDS011;3892;47.794;19.126;2023-07-24T06:56:24;6.87;;;6.23;;
7699;SDS011;3892;47.794;19.126;2023-07-24T06:58:52;6.93;;;6.33;;
7699;SDS011;3892;47.794;19.126;2023-07-24T07:01:20;12.00;;;9.87;;
7699;SDS011;3892;47.794;19.126;2023-07-24T07:03:49;7.10;;;6.40;;
7699;SDS011;3892;47.794;19.126;2023-07-24T07:06:17;7.43;;;6.73;;
7699;SDS011;3892;47.794;19.126;2023-07-24T07:08:48;7.47;;;6.73;;
7699;SDS011;3892;47.794;19.126;2023-07-24T07:11:20;8.13;;;6.70;;
7699;SDS011;3892;47.794;19.126;2023-07-24T07:13:48;9.47;;;7.97;;
7699;SDS011;3892;47.794;19.126;2023-07-24T07:16:16;8.00;;;7.20;;
7699;SDS011;3892;47.794;19.126;2023-07-24T07:18:45;9.03;;;7.00;;
7699;SDS011;3892;47.794;19.126;2023-07-24T07:21:13;7.60;;;6.90;;
7699;SDS011;3892;47.794;19.126;2023-07-24T07:23:41;6.97;;;6.17;;
7699;SDS011;3892;47.794;19.126;2023-07-24T07:26:10;8.17;;;6.50;;
7699;SDS011;3892;47.794;19.126;2023-07-24T07:28:39;8.30;;;7.37;;
7699;SDS011;3892;47.794;19.126;2023-07-24T07:31:07;7.57;;;6.87;;
7699;SDS011;3892;47.794;19.126;2023-07-24T07:33:35;7.37;;;6.67;;
7699;SDS011;3892;47.794;19.126;2023-07-24T07:36:03;8.40;;;7.10;;
7699;SDS011;3892;47.794;19.126;2023-07-24T07:38:32;7.57;;;6.80;;
7699;SDS011;3892;47.794;19.126;2023-07-24T07:41:03;7.80;;;7.00;;
7699;SDS011;3892;47.794;19.126;2023-07-24T07:43:31;8.70;;;7.13;;
7699;SDS011;3892;47.794;19.126;2023-07-24T07:46:02;15.77;;;8.03;;
7699;SDS011;3892;47.794;19.126;2023-07-24T07:48:30;8.67;;;7.80;;
7699;SDS011;3892;47.794;19.126;2023-07-24T07:50:59;8.23;;;7.00;;
7699;SDS011;3892;47.794;19.126;2023-07-24T07:53:27;9.53;;;7.23;;
7699;SDS011;3892;47.794;19.126;2023-07-24T07:55:55;8.20;;;7.50;;
7699;SDS011;3892;47.794;19.126;2023-07-24T07:58:24;8.60;;;7.00;;
7699;SDS011;3892;47.794;19.126;2023-07-24T08:00:52;8.27;;;6.93;;
7699;SDS011;3892;47.794;19.126;2023-07-24T08:03:24;7.97;;;6.63;;
7699;SDS011;3892;47.794;19.126;2023-07-24T08:05:56;8.33;;;6.90;;
7699;SDS011;3892;47.794;19.126;2023-07-24T08:08:24;10.03;;;7.30;;
7699;SDS011;3892;47.794;19.126;2023-07-24T08:10:53;7.63;;;6.93;;
7699;SDS011;3892;47.794;19.126;2023-07-24T08:13:21;10.07;;;7.43;;
7699;SDS011;3892;47.794;19.126;2023-07-24T08:15:49;11.67;;;6.93;;
7699;SDS011;3892;47.794;19.126;2023-07-24T08:18:17;7.37;;;6.67;;
7699;SDS011;3892;47.794;19.126;2023-07-24T08:20:47;7.57;;;6.57;;
7699;SDS011;3892;47.794;19.126;2023-07-24T08:23:15;8.47;;;6.97;;
7699;SDS011;3892;47.794;19.126;2023-07-24T08:25:50;11.13;;;6.97;;
7699;SDS011;3892;47.794;19.126;2023-07-24T08:28:18;8.23;;;7.07;;
7699;SDS011;3892;47.794;19.126;2023-07-24T08:30:55;9.00;;;7.70;;
7699;SDS011;3892;47.794;19.126;2023-07-24T08:33:24;11.13;;;7.87;;
7699;SDS011;3892;47.794;19.126;2023-07-24T08:36:00;11.97;;;7.40;;
7699;SDS011;3892;47.794;19.126;2023-07-24T08:38:31;11.63;;;7.47;;
7699;SDS011;3892;47.794;19.126;2023-07-24T08:41:02;14.77;;;7.87;;
7699;SDS011;3892;47.794;19.126;2023-07-24T08:43:32;9.63;;;7.47;;
7699;SDS011;3892;47.794;19.126;2023-07-24T08:46:01;9.60;;;7.57;;
7699;SDS011;3892;47.794;19.126;2023-07-24T08:48:31;11.70;;;7.93;;
7699;SDS011;3892;47.794;19.126;2023-07-24T08:51:04;10.43;;;7.13;;
7699;SDS011;3892;47.794;19.126;2023-07-24T08:53:33;10.03;;;7.60;;
7699;SDS011;3892;47.794;19.126;2023-07-24T08:56:02;11.53;;;7.70;;
7699;SDS011;3892;47.794;19.126;2023-07-24T08:58:31;8.30;;;7.50;;
7699;SDS011;3892;47.794;19.126;2023-07-24T09:01:00;9.73;;;7.00;;
7699;SDS011;3892;47.794;19.126;2023-07-24T09:03:30;11.10;;;7.60;;
7699;SDS011;3892;47.794;19.126;2023-07-24T09:05:59;9.87;;;7.87;;
7699;SDS011;3892;47.794;19.126;2023-07-24T09:08:30;9.07;;;7.43;;
7699;SDS011;3892;47.794;19.126;2023-07-24T09:10:58;12.47;;;8.00;;
7699;SDS011;3892;47.794;19.126;2023-07-24T09:13:27;11.50;;;7.60;;
7699;SDS011;3892;47.794;19.126;2023-07-24T09:15:55;10.93;;;8.00;;
7699;SDS011;3892;47.794;19.126;2023-07-24T09:18:25;9.17;;;8.13;;
7699;SDS011;3892;47.794;19.126;2023-07-24T09:20:53;8.83;;;7.93;;
7699;SDS011;3892;47.794;19.126;2023-07-24T09:23:25;11.20;;;8.37;;
7699;SDS011;3892;47.794;19.126;2023-07-24T09:25:56;9.87;;;7.80;;
7699;SDS011;3892;47.794;19.126;2023-07-24T09:28:24;10.80;;;8.70;;
7699;SDS011;3892;47.794;19.126;2023-07-24T09:30:53;15.10;;;8.30;;
7699;SDS011;3892;47.794;19.126;2023-07-24T09:33:22;11.30;;;8.30;;
7699;SDS011;3892;47.794;19.126;2023-07-24T09:35:57;13.77;;;8.23;;
7699;SDS011;3892;47.794;19.126;2023-07-24T09:38:25;10.63;;;8.10;;
7699;SDS011;3892;47.794;19.126;2023-07-24T09:40:54;10.53;;;8.23;;
7699;SDS011;3892;47.794;19.126;2023-07-24T09:43:25;10.15;;;8.55;;
7699;SDS011;3892;47.794;19.126;2023-07-24T09:46:04;9.20;;;8.30;;
7699;SDS011;3892;47.794;19.126;2023-07-24T09:48:33;10.13;;;8.70;;
7699;SDS011;3892;47.794;19.126;2023-07-24T09:51:05;10.17;;;8.53;;
7699;SDS011;3892;47.794;19.126;2023-07-24T09:53:36;9.98;;;8.70;;
7699;SDS011;3892;47.794;19.126;2023-07-24T09:56:10;10.73;;;8.80;;
7699;SDS011;3892;47.794;19.126;2023-07-24T09:58:40;13.68;;;9.43;;
7699;SDS011;3892;47.794;19.126;2023-07-24T10:01:09;12.98;;;9.68;;
7699;SDS011;3892;47.794;19.126;2023-07-24T10:03:38;9.88;;;8.98;;
7699;SDS011;3892;47.794;19.126;2023-07-24T10:06:08;10.85;;;9.75;;
7699;SDS011;3892;47.794;19.126;2023-07-24T10:08:38;10.65;;;9.07;;
7699;SDS011;3892;47.794;19.126;2023-07-24T10:11:06;12.45;;;9.77;;
7699;SDS011;3892;47.794;19.126;2023-07-24T10:13:35;10.77;;;9.18;;
7699;SDS011;3892;47.794;19.126;2023-07-24T10:16:05;12.95;;;9.02;;
7699;SDS011;3892;47.794;19.126;2023-07-24T10:18:34;14.30;;;9.63;;
7699;SDS011;3892;47.794;19.126;2023-07-24T10:21:09;11.43;;;10.27;;
7699;SDS011;3892;47.794;19.126;2023-07-24T10:23:40;10.77;;;9.45;;
7699;SDS011;3892;47.794;19.126;2023-07-24T10:26:09;14.30;;;9.73;;
7699;SDS011;3892;47.794;19.126;2023-07-24T10:28:38;13.73;;;10.30;;
7699;SDS011;3892;47.794;19.126;2023-07-24T10:31:18;10.93;;;9.77;;
7699;SDS011;3892;47.794;19.126;2023-07-24T10:33:47;10.80;;;9.70;;
7699;SDS011;3892;47.794;19.126;2023-07-24T10:36:16;14.32;;;10.50;;
7699;SDS011;3892;47.794;19.126;2023-07-24T10:38:46;11.70;;;9.93;;
7699;SDS011;3892;47.794;19.126;2023-07-24T10:41:19;10.73;;;9.60;;
7699;SDS011;3892;47.794;19.126;2023-07-24T10:43:48;14.68;;;10.50;;
7699;SDS011;3892;47.794;19.126;2023-07-24T10:46:19;11.93;;;10.15;;
7699;SDS011;3892;47.794;19.126;2023-07-24T10:48:48;13.02;;;10.02;;
7699;SDS011;3892;47.794;19.126;2023-07-24T10:51:19;12.38;;;9.57;;
7699;SDS011;3892;47.794;19.126;2023-07-24T10:53:49;13.60;;;10.48;;
7699;SDS011;3892;47.794;19.126;2023-07-24T10:56:17;15.57;;;10.82;;
7699;SDS011;3892;47.794;19.126;2023-07-24T10:58:45;11.45;;;10.25;;
7699;SDS011;3892;47.794;19.126;2023-07-24T11:01:13;11.60;;;10.40;;
7699;SDS011;3892;47.794;19.126;2023-07-24T11:03:43;13.60;;;10.43;;
7699;SDS011;3892;47.794;19.126;2023-07-24T11:06:12;15.52;;;11.63;;
7699;SDS011;3892;47.794;19.126;2023-07-24T11:08:50;13.40;;;11.90;;
7699;SDS011;3892;47.794;19.126;2023-07-24T11:11:22;14.38;;;10.27;;
7699;SDS011;3892;47.794;19.126;2023-07-24T11:13:55;11.98;;;10.38;;
7699;SDS011;3892;47.794;19.126;2023-07-24T11:16:23;13.52;;;10.77;;
7699;SDS011;3892;47.794;19.126;2023-07-24T11:18:53;13.40;;;11.32;;
7699;SDS011;3892;47.794;19.126;2023-07-24T11:21:22;12.27;;;11.02;;
7699;SDS011;3892;47.794;19.126;2023-07-24T11:23:51;13.95;;;11.90;;
7699;SDS011;3892;47.794;19.126;2023-07-24T11:26:20;12.52;;;10.32;;
7699;SDS011;3892;47.794;19.126;2023-07-24T11:28:49;14.48;;;10.95;;
7699;SDS011;3892;47.794;19.126;2023-07-24T11:31:18;14.40;;;11.95;;
7699;SDS011;3892;47.794;19.126;2023-07-24T11:33:47;13.50;;;11.25;;
7699;SDS011;3892;47.794;19.126;2023-07-24T11:36:17;17.73;;;11.45;;
7699;SDS011;3892;47.794;19.126;2023-07-24T11:38:45;14.23;;;12.23;;
7699;SDS011;3892;47.794;19.126;2023-07-24T11:41:13;12.48;;;10.68;;
7699;SDS011;3892;47.794;19.126;2023-07-24T11:43:46;13.15;;;11.68;;
7699;SDS011;3892;47.794;19.126;2023-07-24T11:46:22;13.93;;;11.55;;
7699;SDS011;3892;47.794;19.126;2023-07-24T11:48:52;15.02;;;11.45;;
7699;SDS011;3892;47.794;19.126;2023-07-24T11:51:24;12.70;;;11.35;;
7699;SDS011;3892;47.794;19.126;2023-07-24T11:54:03;13.27;;;10.93;;
7699;SDS011;3892;47.794;19.126;2023-07-24T11:56:33;12.02;;;10.73;;
7699;SDS011;3892;47.794;19.126;2023-07-24T11:59:09;13.88;;;11.68;;
7699;SDS011;3892;47.794;19.126;2023-07-24T12:01:38;13.55;;;10.63;;
7699;SDS011;3892;47.794;19.126;2023-07-24T12:04:06;15.73;;;12.20;;
7699;SDS011;3892;47.794;19.126;2023-07-24T12:06:36;13.05;;;11.50;;
7699;SDS011;3892;47.794;19.126;2023-07-24T12:09:05;12.90;;;11.27;;
7699;SDS011;3892;47.794;19.126;2023-07-24T12:11:38;15.02;;;11.73;;
7699;SDS011;3892;47.794;19.126;2023-07-24T12:14:10;13.68;;;11.52;;
7699;SDS011;3892;47.794;19.126;2023-07-24T12:16:38;13.85;;;11.45;;
7699;SDS011;3892;47.794;19.126;2023-07-24T12:19:06;13.55;;;11.00;;
7699;SDS011;3892;47.794;19.126;2023-07-24T12:21:34;13.10;;;11.02;;
7699;SDS011;3892;47.794;19.126;2023-07-24T12:24:04;11.80;;;10.60;;
7699;SDS011;3892;47.794;19.126;2023-07-24T12:26:32;16.05;;;11.38;;
7699;SDS011;3892;47.794;19.126;2023-07-24T12:29:00;13.50;;;9.82;;
7699;SDS011;3892;47.794;19.126;2023-07-24T12:31:28;12.35;;;10.73;;
7699;SDS011;3892;47.794;19.126;2023-07-24T12:33:57;15.32;;;10.60;;
7699;SDS011;3892;47.794;19.126;2023-07-24T12:36:25;14.63;;;10.27;;
7699;SDS011;3892;47.794;19.126;2023-07-24T12:38:53;13.80;;;10.63;;
7699;SDS011;3892;47.794;19.126;2023-07-24T12:41:23;13.32;;;11.15;;
7699;SDS011;3892;47.794;19.126;2023-07-24T12:43:51;11.32;;;10.13;;
7699;SDS011;3892;47.794;19.126;2023-07-24T12:46:19;13.55;;;10.32;;
7699;SDS011;3892;47.794;19.126;2023-07-24T12:48:47;12.88;;;9.82;;
7699;SDS011;3892;47.794;19.126;2023-07-24T12:51:15;14.43;;;9.60;;
7699;SDS011;3892;47.794;19.126;2023-07-24T12:53:43;13.15;;;9.70;;
7699;SDS011;3892;47.794;19.126;2023-07-24T12:56:11;11.73;;;9.73;;
7699;SDS011;3892;47.794;19.126;2023-07-24T12:58:41;12.48;;;10.00;;
7699;SDS011;3892;47.794;19.126;2023-07-24T13:01:10;12.10;;;9.73;;
7699;SDS011;3892;47.794;19.126;2023-07-24T13:03:38;10.70;;;9.60;;
7699;SDS011;3892;47.794;19.126;2023-07-24T13:06:06;9.93;;;8.98;;
7699;SDS011;3892;47.794;19.126;2023-07-24T13:08:34;9.93;;;8.93;;
7699;SDS011;3892;47.794;19.126;2023-07-24T13:11:02;11.38;;;9.00;;
7699;SDS011;3892;47.794;19.126;2023-07-24T13:13:31;13.70;;;9.55;;
7699;SDS011;3892;47.794;19.126;2023-07-24T13:16:00;12.50;;;9.40;;
7699;SDS011;3892;47.794;19.126;2023-07-24T13:18:29;11.38;;;9.63;;
7699;SDS011;3892;47.794;19.126;2023-07-24T13:20:57;11.88;;;9.30;;
7699;SDS011;3892;47.794;19.126;2023-07-24T13:23:25;33.95;;;10.13;;
7699;SDS011;3892;47.794;19.126;2023-07-24T13:25:53;10.52;;;8.55;;
7699;SDS011;3892;47.794;19.126;2023-07-24T13:28:21;11.38;;;9.38;;
7699;SDS011;3892;47.794;19.126;2023-07-24T13:30:49;10.75;;;8.98;;
7699;SDS011;3892;47.794;19.126;2023-07-24T13:33:19;10.00;;;8.60;;
7699;SDS011;3892;47.794;19.126;2023-07-24T13:35:48;11.13;;;8.57;;
7699;SDS011;3892;47.794;19.126;2023-07-24T13:38:17;9.95;;;8.90;;
7699;SDS011;3892;47.794;19.126;2023-07-24T13:40:47;13.55;;;8.57;;
7699;SDS011;3892;47.794;19.126;2023-07-24T13:43:15;12.68;;;8.48;;
7699;SDS011;3892;47.794;19.126;2023-07-24T13:45:44;9.77;;;8.18;;
7699;SDS011;3892;47.794;19.126;2023-07-24T13:48:13;10.80;;;8.75;;
7699;SDS011;3892;47.794;19.126;2023-07-24T13:50:42;14.38;;;8.23;;
7699;SDS011;3892;47.794;19.126;2023-07-24T13:53:10;10.32;;;8.15;;
7699;SDS011;3892;47.794;19.126;2023-07-24T13:55:39;13.45;;;8.57;;
7699;SDS011;3892;47.794;19.126;2023-07-24T13:58:07;9.48;;;8.45;;
7699;SDS011;3892;47.794;19.126;2023-07-24T14:00:36;10.23;;;7.60;;
7699;SDS011;3892;47.794;19.126;2023-07-24T14:03:06;9.93;;;7.72;;
7699;SDS011;3892;47.794;19.126;2023-07-24T14:05:34;14.15;;;8.45;;
7699;SDS011;3892;47.794;19.126;2023-07-24T14:08:07;11.98;;;8.25;;
7699;SDS011;3892;47.794;19.126;2023-07-24T14:10:35;9.95;;;7.78;;
7699;SDS011;3892;47.794;19.126;2023-07-24T14:13:03;9.70;;;7.55;;
7699;SDS011;3892;47.794;19.126;2023-07-24T14:15:31;10.18;;;8.68;;
7699;SDS011;3892;47.794;19.126;2023-07-24T14:17:59;14.63;;;8.80;;
7699;SDS011;3892;47.794;19.126;2023-07-24T14:20:28;12.65;;;9.32;;
7699;SDS011;3892;47.794;19.126;2023-07-24T14:22:56;12.10;;;9.38;;
7699;SDS011;3892;47.794;19.126;2023-07-24T14:25:27;15.55;;;10.02;;
7699;SDS011;3892;47.794;19.126;2023-07-24T14:27:55;14.73;;;9.93;;
7699;SDS011;3892;47.794;19.126;2023-07-24T14:30:24;11.52;;;9.80;;
7699;SDS011;3892;47.794;19.126;2023-07-24T14:32:52;15.07;;;10.40;;
7699;SDS011;3892;47.794;19.126;2023-07-24T14:35:21;14.48;;;10.68;;
7699;SDS011;3892;47.794;19.126;2023-07-24T14:37:49;11.85;;;10.48;;
7699;SDS011;3892;47.794;19.126;2023-07-24T14:40:18;14.90;;;10.82;;
7699;SDS011;3892;47.794;19.126;2023-07-24T14:42:48;15.95;;;11.70;;
7699;SDS011;3892;47.794;19.126;2023-07-24T14:45:17;14.68;;;10.73;;
7699;SDS011;3892;47.794;19.126;2023-07-24T14:47:46;16.25;;;11.27;;
7699;SDS011;3892;47.794;19.126;2023-07-24T14:50:15;16.13;;;12.23;;
7699;SDS011;3892;47.794;19.126;2023-07-24T14:52:43;13.68;;;11.98;;
7699;SDS011;3892;47.794;19.126;2023-07-24T14:55:13;15.27;;;11.77;;
7699;SDS011;3892;47.794;19.126;2023-07-24T14:57:43;14.13;;;11.02;;
7699;SDS011;3892;47.794;19.126;2023-07-24T15:00:14;13.20;;;11.80;;
7699;SDS011;3892;47.794;19.126;2023-07-24T15:02:44;19.40;;;12.45;;
7699;SDS011;3892;47.794;19.126;2023-07-24T15:05:12;17.52;;;12.05;;